sensor_id;sensor_type;location;lat;lon;timestamp;temperature;humidity
11569;DHT22;5840;46.894;15.542;2023-02-22T00:00:25;8.20;96.80
11569;DHT22;5840;46.894;15.542;2023-02-22T00:03:02;8.10;97.10
11569;DHT22;5840;46.894;15.542;2023-02-22T00:05:29;8.10;97.40
11569;DHT22;5840;46.894;15.542;2023-02-22T00:07:57;8.10;97.50
11569;DHT22;5840;46.894;15.542;2023-02-22T00:10:25;8.10;97.60
11569;DHT22;5840;46.894;15.542;2023-02-22T00:12:54;8.00;97.80
11569;DHT22;5840;46.894;15.542;2023-02-22T00:15:23;8.00;98.30
11569;DHT22;5840;46.894;15.542;2023-02-22T00:17:52;8.00;99.10
11569;DHT22;5840;46.894;15.542;2023-02-22T00:20:21;8.00;99.30
11569;DHT22;5840;46.894;15.542;2023-02-22T00:22:49;7.90;99.30
11569;DHT22;5840;46.894;15.542;2023-02-22T00:25:19;8.00;99.80
11569;DHT22;5840;46.894;15.542;2023-02-22T00:27:48;8.10;99.90
11569;DHT22;5840;46.894;15.542;2023-02-22T00:30:18;8.00;99.90
11569;DHT22;5840;46.894;15.542;2023-02-22T00:32:46;8.00;99.90
11569;DHT22;5840;46.894;15.542;2023-02-22T00:35:13;8.00;99.90
11569;DHT22;5840;46.894;15.542;2023-02-22T00:37:42;7.90;99.60
11569;DHT22;5840;46.894;15.542;2023-02-22T00:40:10;7.70;99.50
11569;DHT22;5840;46.894;15.542;2023-02-22T00:42:38;7.60;99.90
11569;DHT22;5840;46.894;15.542;2023-02-22T00:45:05;7.50;99.90
11569;DHT22;5840;46.894;15.542;2023-02-22T00:47:33;7.40;99.90
11569;DHT22;5840;46.894;15.542;2023-02-22T00:50:00;7.40;99.90
11569;DHT22;5840;46.894;15.542;2023-02-22T00:52:27;7.30;99.90
11569;DHT22;5840;46.894;15.542;2023-02-22T00:54:56;7.20;99.90
11569;DHT22;5840;46.894;15.542;2023-02-22T00:57:24;7.20;99.90
11569;DHT22;5840;46.894;15.542;2023-02-22T00:59:51;7.20;99.90
11569;DHT22;5840;46.894;15.542;2023-02-22T01:02:18;7.10;99.90
11569;DHT22;5840;46.894;15.542;2023-02-22T01:04:45;7.10;99.90
11569;DHT22;5840;46.894;15.542;2023-02-22T01:07:12;7.10;99.90
11569;DHT22;5840;46.894;15.542;2023-02-22T01:09:39;7.10;99.90
11569;DHT22;5840;46.894;15.542;2023-02-22T01:12:08;7.00;99.90
11569;DHT22;5840;46.894;15.542;2023-02-22T01:14:35;6.90;99.90
11569;DHT22;5840;46.894;15.542;2023-02-22T01:17:01;6.80;99.90
11569;DHT22;5840;46.894;15.542;2023-02-22T01:19:29;6.70;99.90
11569;DHT22;5840;46.894;15.542;2023-02-22T01:21:56;6.70;99.90
11569;DHT22;5840;46.894;15.542;2023-02-22T01:24:23;6.60;99.90
11569;DHT22;5840;46.894;15.542;2023-02-22T01:26:51;6.40;99.90
11569;DHT22;5840;46.894;15.542;2023-02-22T01:29:20;6.30;99.90
11569;DHT22;5840;46.894;15.542;2023-02-22T01:31:52;6.10;99.90
11569;DHT22;5840;46.894;15.542;2023-02-22T01:34:20;6.10;99.90
11569;DHT22;5840;46.894;15.542;2023-02-22T01:36:47;6.00;99.90
11569;DHT22;5840;46.894;15.542;2023-02-22T01:39:14;5.90;99.90
11569;DHT22;5840;46.894;15.542;2023-02-22T01:41:42;5.80;99.90
11569;DHT22;5840;46.894;15.542;2023-02-22T01:44:26;5.80;99.90
11569;DHT22;5840;46.894;15.542;2023-02-22T01:46:53;5.80;99.90
11569;DHT22;5840;46.894;15.542;2023-02-22T01:49:20;5.70;99.90
11569;DHT22;5840;46.894;15.542;2023-02-22T01:51:50;5.70;99.90
11569;DHT22;5840;46.894;15.542;2023-02-22T01:54:22;5.60;99.90
11569;DHT22;5840;46.894;15.542;2023-02-22T01:56:54;5.60;99.90
11569;DHT22;5840;46.894;15.542;2023-02-22T01:59:27;5.60;99.90
11569;DHT22;5840;46.894;15.542;2023-02-22T02:01:57;5.50;99.90
11569;DHT22;5840;46.894;15.542;2023-02-22T02:04:25;5.50;99.90
11569;DHT22;5840;46.894;15.542;2023-02-22T02:06:54;5.50;99.90
11569;DHT22;5840;46.894;15.542;2023-02-22T02:09:37;5.40;99.90
11569;DHT22;5840;46.894;15.542;2023-02-22T02:12:07;5.40;99.90
11569;DHT22;5840;46.894;15.542;2023-02-22T02:14:37;5.30;99.90
11569;DHT22;5840;46.894;15.542;2023-02-22T02:17:06;5.30;99.90
11569;DHT22;5840;46.894;15.542;2023-02-22T02:19:40;5.30;99.90
11569;DHT22;5840;46.894;15.542;2023-02-22T02:22:37;5.30;99.90
11569;DHT22;5840;46.894;15.542;2023-02-22T02:25:45;5.30;99.90
11569;DHT22;5840;46.894;15.542;2023-02-22T02:32:26;5.30;99.90
11569;DHT22;5840;46.894;15.542;2023-02-22T02:34:59;5.30;99.90
11569;DHT22;5840;46.894;15.542;2023-02-22T02:37:34;5.20;99.90
11569;DHT22;5840;46.894;15.542;2023-02-22T02:40:10;5.30;99.90
11569;DHT22;5840;46.894;15.542;2023-02-22T02:42:50;5.20;99.90
11569;DHT22;5840;46.894;15.542;2023-02-22T02:45:23;5.10;99.90
11569;DHT22;5840;46.894;15.542;2023-02-22T02:47:56;5.10;99.90
11569;DHT22;5840;46.894;15.542;2023-02-22T02:50:26;5.10;99.90
11569;DHT22;5840;46.894;15.542;2023-02-22T02:52:58;5.10;99.90
11569;DHT22;5840;46.894;15.542;2023-02-22T02:55:28;5.10;99.90
11569;DHT22;5840;46.894;15.542;2023-02-22T02:57:56;5.00;99.90
11569;DHT22;5840;46.894;15.542;2023-02-22T03:00:26;5.00;99.90
11569;DHT22;5840;46.894;15.542;2023-02-22T03:03:08;4.90;99.90
11569;DHT22;5840;46.894;15.542;2023-02-22T03:05:51;4.90;99.90
11569;DHT22;5840;46.894;15.542;2023-02-22T03:08:28;4.90;99.90
11569;DHT22;5840;46.894;15.542;2023-02-22T03:11:04;4.90;99.90
11569;DHT22;5840;46.894;15.542;2023-02-22T03:13:44;4.90;99.90
11569;DHT22;5840;46.894;15.542;2023-02-22T03:16:20;4.80;99.90
11569;DHT22;5840;46.894;15.542;2023-02-22T03:18:55;4.80;99.90
11569;DHT22;5840;46.894;15.542;2023-02-22T03:21:25;4.80;99.90
11569;DHT22;5840;46.894;15.542;2023-02-22T03:24:05;4.80;99.90
11569;DHT22;5840;46.894;15.542;2023-02-22T03:26:37;4.80;99.90
11569;DHT22;5840;46.894;15.542;2023-02-22T03:29:07;4.80;99.90
11569;DHT22;5840;46.894;15.542;2023-02-22T03:31:39;4.80;99.90
11569;DHT22;5840;46.894;15.542;2023-02-22T03:34:10;4.80;99.90
11569;DHT22;5840;46.894;15.542;2023-02-22T03:36:41;4.70;99.90
11569;DHT22;5840;46.894;15.542;2023-02-22T03:39:13;4.70;99.90
11569;DHT22;5840;46.894;15.542;2023-02-22T03:41:46;4.70;99.90
11569;DHT22;5840;46.894;15.542;2023-02-22T03:44:18;4.60;99.90
11569;DHT22;5840;46.894;15.542;2023-02-22T03:46:47;4.60;99.90
11569;DHT22;5840;46.894;15.542;2023-02-22T03:49:22;4.50;99.90
11569;DHT22;5840;46.894;15.542;2023-02-22T03:51:50;4.50;99.90
11569;DHT22;5840;46.894;15.542;2023-02-22T03:54:17;4.50;99.90
11569;DHT22;5840;46.894;15.542;2023-02-22T03:56:49;4.40;99.90
11569;DHT22;5840;46.894;15.542;2023-02-22T03:59:17;4.40;99.90
11569;DHT22;5840;46.894;15.542;2023-02-22T04:01:48;4.30;99.90
11569;DHT22;5840;46.894;15.542;2023-02-22T04:04:17;4.40;99.90
11569;DHT22;5840;46.894;15.542;2023-02-22T04:06:46;4.30;99.90
11569;DHT22;5840;46.894;15.542;2023-02-22T04:09:14;4.30;99.90
11569;DHT22;5840;46.894;15.542;2023-02-22T04:11:41;4.30;99.90
11569;DHT22;5840;46.894;15.542;2023-02-22T04:14:08;4.30;99.90
11569;DHT22;5840;46.894;15.542;2023-02-22T04:16:35;4.30;99.90
11569;DHT22;5840;46.894;15.542;2023-02-22T04:19:02;4.30;99.90
11569;DHT22;5840;46.894;15.542;2023-02-22T04:21:30;4.30;99.90
11569;DHT22;5840;46.894;15.542;2023-02-22T04:23:57;4.30;99.90
11569;DHT22;5840;46.894;15.542;2023-02-22T04:26:24;4.30;99.90
11569;DHT22;5840;46.894;15.542;2023-02-22T04:28:51;4.30;99.90
11569;DHT22;5840;46.894;15.542;2023-02-22T04:31:18;4.20;99.90
11569;DHT22;5840;46.894;15.542;2023-02-22T04:33:45;4.20;99.90
11569;DHT22;5840;46.894;15.542;2023-02-22T04:36:13;4.10;99.90
11569;DHT22;5840;46.894;15.542;2023-02-22T04:38:42;4.10;99.90
11569;DHT22;5840;46.894;15.542;2023-02-22T04:41:09;4.10;99.90
11569;DHT22;5840;46.894;15.542;2023-02-22T04:43:36;4.10;99.90
11569;DHT22;5840;46.894;15.542;2023-02-22T04:46:02;4.00;99.90
11569;DHT22;5840;46.894;15.542;2023-02-22T04:48:30;4.00;99.90
11569;DHT22;5840;46.894;15.542;2023-02-22T04:50:57;3.90;99.90
11569;DHT22;5840;46.894;15.542;2023-02-22T04:53:24;3.90;99.90
11569;DHT22;5840;46.894;15.542;2023-02-22T04:55:52;3.90;99.90
11569;DHT22;5840;46.894;15.542;2023-02-22T04:58:19;3.80;99.90
11569;DHT22;5840;46.894;15.542;2023-02-22T05:00:46;3.80;99.90
11569;DHT22;5840;46.894;15.542;2023-02-22T05:03:13;3.80;99.90
11569;DHT22;5840;46.894;15.542;2023-02-22T05:05:40;3.70;99.90
11569;DHT22;5840;46.894;15.542;2023-02-22T05:08:07;3.70;99.90
11569;DHT22;5840;46.894;15.542;2023-02-22T05:10:34;3.60;99.90
11569;DHT22;5840;46.894;15.542;2023-02-22T05:13:02;3.60;99.90
11569;DHT22;5840;46.894;15.542;2023-02-22T05:15:30;3.60;99.90
11569;DHT22;5840;46.894;15.542;2023-02-22T05:17:57;3.60;99.90
11569;DHT22;5840;46.894;15.542;2023-02-22T05:20:27;3.60;99.90
11569;DHT22;5840;46.894;15.542;2023-02-22T05:22:55;3.60;99.90
11569;DHT22;5840;46.894;15.542;2023-02-22T05:25:22;3.60;99.90
11569;DHT22;5840;46.894;15.542;2023-02-22T05:27:50;3.60;99.90
11569;DHT22;5840;46.894;15.542;2023-02-22T05:30:20;3.50;99.90
11569;DHT22;5840;46.894;15.542;2023-02-22T05:32:48;3.50;99.90
11569;DHT22;5840;46.894;15.542;2023-02-22T05:35:15;3.40;99.90
11569;DHT22;5840;46.894;15.542;2023-02-22T05:37:42;3.40;99.90
11569;DHT22;5840;46.894;15.542;2023-02-22T05:40:10;3.40;99.90
11569;DHT22;5840;46.894;15.542;2023-02-22T05:42:38;3.40;99.90
11569;DHT22;5840;46.894;15.542;2023-02-22T05:45:06;3.40;99.90
11569;DHT22;5840;46.894;15.542;2023-02-22T05:47:35;3.30;99.90
11569;DHT22;5840;46.894;15.542;2023-02-22T05:50:02;3.30;99.90
11569;DHT22;5840;46.894;15.542;2023-02-22T05:52:29;3.30;99.90
11569;DHT22;5840;46.894;15.542;2023-02-22T05:54:56;3.20;99.90
11569;DHT22;5840;46.894;15.542;2023-02-22T05:57:23;3.30;99.90
11569;DHT22;5840;46.894;15.542;2023-02-22T05:59:50;3.30;99.90
11569;DHT22;5840;46.894;15.542;2023-02-22T06:02:17;3.30;99.90
11569;DHT22;5840;46.894;15.542;2023-02-22T06:04:45;3.20;99.90
11569;DHT22;5840;46.894;15.542;2023-02-22T06:07:13;3.30;99.90
11569;DHT22;5840;46.894;15.542;2023-02-22T06:09:41;3.30;99.90
11569;DHT22;5840;46.894;15.542;2023-02-22T06:12:08;3.20;99.90
11569;DHT22;5840;46.894;15.542;2023-02-22T06:14:35;3.20;99.90
11569;DHT22;5840;46.894;15.542;2023-02-22T06:17:02;3.20;99.90
11569;DHT22;5840;46.894;15.542;2023-02-22T06:19:31;3.20;99.90
11569;DHT22;5840;46.894;15.542;2023-02-22T06:21:59;3.30;99.90
11569;DHT22;5840;46.894;15.542;2023-02-22T06:24:27;3.30;99.90
11569;DHT22;5840;46.894;15.542;2023-02-22T06:26:54;3.30;99.90
11569;DHT22;5840;46.894;15.542;2023-02-22T06:29:22;3.40;99.90
11569;DHT22;5840;46.894;15.542;2023-02-22T06:31:49;3.40;99.90
11569;DHT22;5840;46.894;15.542;2023-02-22T06:34:17;3.50;99.90
11569;DHT22;5840;46.894;15.542;2023-02-22T06:36:45;3.50;99.90
11569;DHT22;5840;46.894;15.542;2023-02-22T06:39:14;3.60;99.90
11569;DHT22;5840;46.894;15.542;2023-02-22T06:41:42;3.60;99.90
11569;DHT22;5840;46.894;15.542;2023-02-22T06:44:09;3.70;99.90
11569;DHT22;5840;46.894;15.542;2023-02-22T06:46:36;3.80;99.90
11569;DHT22;5840;46.894;15.542;2023-02-22T06:49:03;3.90;99.90
11569;DHT22;5840;46.894;15.542;2023-02-22T06:51:35;3.90;99.90
11569;DHT22;5840;46.894;15.542;2023-02-22T06:54:03;3.90;99.90
11569;DHT22;5840;46.894;15.542;2023-02-22T06:56:32;4.00;99.90
11569;DHT22;5840;46.894;15.542;2023-02-22T06:58:58;4.10;99.90
11569;DHT22;5840;46.894;15.542;2023-02-22T07:01:26;4.20;99.90
11569;DHT22;5840;46.894;15.542;2023-02-22T07:03:54;4.30;99.90
11569;DHT22;5840;46.894;15.542;2023-02-22T07:06:21;4.40;99.90
11569;DHT22;5840;46.894;15.542;2023-02-22T07:08:48;4.60;99.90
11569;DHT22;5840;46.894;15.542;2023-02-22T07:11:16;4.70;99.90
11569;DHT22;5840;46.894;15.542;2023-02-22T07:13:44;4.90;99.90
11569;DHT22;5840;46.894;15.542;2023-02-22T07:16:11;5.00;99.90
11569;DHT22;5840;46.894;15.542;2023-02-22T07:18:38;5.20;99.90
11569;DHT22;5840;46.894;15.542;2023-02-22T07:21:05;5.40;99.90
11569;DHT22;5840;46.894;15.542;2023-02-22T07:23:32;5.60;99.90
11569;DHT22;5840;46.894;15.542;2023-02-22T07:25:59;5.80;99.90
11569;DHT22;5840;46.894;15.542;2023-02-22T07:28:26;6.00;99.90
11569;DHT22;5840;46.894;15.542;2023-02-22T07:30:54;6.30;99.90
11569;DHT22;5840;46.894;15.542;2023-02-22T07:33:21;6.60;99.90
11569;DHT22;5840;46.894;15.542;2023-02-22T07:35:49;6.90;99.90
11569;DHT22;5840;46.894;15.542;2023-02-22T07:38:17;7.30;99.90
11569;DHT22;5840;46.894;15.542;2023-02-22T07:40:45;7.60;99.90
11569;DHT22;5840;46.894;15.542;2023-02-22T07:43:14;7.80;99.90
11569;DHT22;5840;46.894;15.542;2023-02-22T07:45:42;8.10;99.90
11569;DHT22;5840;46.894;15.542;2023-02-22T07:48:11;8.40;99.90
11569;DHT22;5840;46.894;15.542;2023-02-22T07:50:38;8.70;99.90
11569;DHT22;5840;46.894;15.542;2023-02-22T07:53:09;8.90;99.90
11569;DHT22;5840;46.894;15.542;2023-02-22T07:55:37;9.10;99.90
11569;DHT22;5840;46.894;15.542;2023-02-22T07:58:05;9.40;99.90
11569;DHT22;5840;46.894;15.542;2023-02-22T08:00:34;9.70;99.90
11569;DHT22;5840;46.894;15.542;2023-02-22T08:03:04;10.10;99.90
11569;DHT22;5840;46.894;15.542;2023-02-22T08:05:34;10.40;99.90
11569;DHT22;5840;46.894;15.542;2023-02-22T08:08:01;10.70;99.90
11569;DHT22;5840;46.894;15.542;2023-02-22T08:10:29;11.00;99.90
11569;DHT22;5840;46.894;15.542;2023-02-22T08:12:56;11.10;99.90
11569;DHT22;5840;46.894;15.542;2023-02-22T08:15:26;11.20;99.90
11569;DHT22;5840;46.894;15.542;2023-02-22T08:17:54;11.30;99.90
11569;DHT22;5840;46.894;15.542;2023-02-22T08:20:21;11.40;99.90
11569;DHT22;5840;46.894;15.542;2023-02-22T08:22:50;11.50;99.90
11569;DHT22;5840;46.894;15.542;2023-02-22T08:25:18;11.40;99.60
11569;DHT22;5840;46.894;15.542;2023-02-22T08:27:46;11.50;99.80
11569;DHT22;5840;46.894;15.542;2023-02-22T08:30:16;11.80;99.40
11569;DHT22;5840;46.894;15.542;2023-02-22T08:32:44;11.90;98.90
11569;DHT22;5840;46.894;15.542;2023-02-22T08:35:11;12.00;98.80
11569;DHT22;5840;46.894;15.542;2023-02-22T08:37:41;11.90;98.30
11569;DHT22;5840;46.894;15.542;2023-02-22T08:40:11;12.20;98.80
11569;DHT22;5840;46.894;15.542;2023-02-22T08:42:38;12.30;98.20
11569;DHT22;5840;46.894;15.542;2023-02-22T08:45:06;12.30;97.80
11569;DHT22;5840;46.894;15.542;2023-02-22T08:47:33;12.40;98.10
11569;DHT22;5840;46.894;15.542;2023-02-22T08:50:00;12.40;97.40
11569;DHT22;5840;46.894;15.542;2023-02-22T08:52:27;12.40;97.60
11569;DHT22;5840;46.894;15.542;2023-02-22T08:54:54;12.50;97.60
11569;DHT22;5840;46.894;15.542;2023-02-22T08:57:23;12.80;97.40
11569;DHT22;5840;46.894;15.542;2023-02-22T08:59:50;13.20;96.70
11569;DHT22;5840;46.894;15.542;2023-02-22T09:02:20;13.50;96.40
11569;DHT22;5840;46.894;15.542;2023-02-22T09:04:47;13.80;96.80
11569;DHT22;5840;46.894;15.542;2023-02-22T09:07:15;14.10;95.70
11569;DHT22;5840;46.894;15.542;2023-02-22T09:09:42;14.20;95.90
11569;DHT22;5840;46.894;15.542;2023-02-22T09:12:09;14.40;95.30
11569;DHT22;5840;46.894;15.542;2023-02-22T09:14:38;14.40;95.40
11569;DHT22;5840;46.894;15.542;2023-02-22T09:17:05;14.40;95.20
11569;DHT22;5840;46.894;15.542;2023-02-22T09:19:32;14.60;95.30
11569;DHT22;5840;46.894;15.542;2023-02-22T09:21:59;14.70;94.80
11569;DHT22;5840;46.894;15.542;2023-02-22T09:24:26;14.80;94.20
11569;DHT22;5840;46.894;15.542;2023-02-22T09:26:53;14.90;94.30
11569;DHT22;5840;46.894;15.542;2023-02-22T09:29:21;14.90;94.00
11569;DHT22;5840;46.894;15.542;2023-02-22T09:31:51;15.00;94.70
11569;DHT22;5840;46.894;15.542;2023-02-22T09:34:19;15.10;94.40
11569;DHT22;5840;46.894;15.542;2023-02-22T09:36:48;15.10;93.80
11569;DHT22;5840;46.894;15.542;2023-02-22T09:39:16;15.30;94.00
11569;DHT22;5840;46.894;15.542;2023-02-22T09:41:49;15.40;94.50
11569;DHT22;5840;46.894;15.542;2023-02-22T09:44:25;15.50;93.90
11569;DHT22;5840;46.894;15.542;2023-02-22T09:46:57;15.70;93.40
11569;DHT22;5840;46.894;15.542;2023-02-22T09:49:28;15.70;94.10
11569;DHT22;5840;46.894;15.542;2023-02-22T09:52:01;15.80;93.70
11569;DHT22;5840;46.894;15.542;2023-02-22T09:54:33;16.00;93.50
11569;DHT22;5840;46.894;15.542;2023-02-22T09:57:05;16.10;93.30
11569;DHT22;5840;46.894;15.542;2023-02-22T09:59:36;16.10;92.40
11569;DHT22;5840;46.894;15.542;2023-02-22T10:02:17;16.00;92.50
11569;DHT22;5840;46.894;15.542;2023-02-22T10:04:50;16.20;93.00
11569;DHT22;5840;46.894;15.542;2023-02-22T10:07:23;16.30;92.80
11569;DHT22;5840;46.894;15.542;2023-02-22T10:09:52;16.60;92.10
11569;DHT22;5840;46.894;15.542;2023-02-22T10:12:28;16.60;91.90
11569;DHT22;5840;46.894;15.542;2023-02-22T10:21:34;16.90;90.80
11569;DHT22;5840;46.894;15.542;2023-02-22T10:24:12;16.90;91.10
11569;DHT22;5840;46.894;15.542;2023-02-22T10:26:43;16.80;91.00
11569;DHT22;5840;46.894;15.542;2023-02-22T10:29:17;16.70;91.20
11569;DHT22;5840;46.894;15.542;2023-02-22T10:31:50;16.70;92.00
11569;DHT22;5840;46.894;15.542;2023-02-22T10:34:23;16.70;91.40
11569;DHT22;5840;46.894;15.542;2023-02-22T10:36:56;16.80;92.10
11569;DHT22;5840;46.894;15.542;2023-02-22T10:39:27;16.90;91.20
11569;DHT22;5840;46.894;15.542;2023-02-22T10:42:00;17.00;91.40
11569;DHT22;5840;46.894;15.542;2023-02-22T10:44:31;17.30;90.80
11569;DHT22;5840;46.894;15.542;2023-02-22T10:46:59;17.30;90.60
11569;DHT22;5840;46.894;15.542;2023-02-22T10:49:31;17.40;90.90
11569;DHT22;5840;46.894;15.542;2023-02-22T10:52:02;17.70;91.10
11569;DHT22;5840;46.894;15.542;2023-02-22T10:54:31;17.70;88.80
11569;DHT22;5840;46.894;15.542;2023-02-22T10:57:00;17.80;90.00
11569;DHT22;5840;46.894;15.542;2023-02-22T10:59:31;17.80;90.00
11569;DHT22;5840;46.894;15.542;2023-02-22T11:01:59;17.60;89.10
11569;DHT22;5840;46.894;15.542;2023-02-22T11:04:26;17.60;89.90
11569;DHT22;5840;46.894;15.542;2023-02-22T11:07:12;17.50;89.60
11569;DHT22;5840;46.894;15.542;2023-02-22T11:09:47;17.50;90.10
11569;DHT22;5840;46.894;15.542;2023-02-22T11:12:18;17.50;89.40
11569;DHT22;5840;46.894;15.542;2023-02-22T11:14:46;17.60;89.30
11569;DHT22;5840;46.894;15.542;2023-02-22T11:17:20;17.60;89.30
11569;DHT22;5840;46.894;15.542;2023-02-22T11:19:49;17.40;88.00
11569;DHT22;5840;46.894;15.542;2023-02-22T11:22:25;17.10;88.50
11569;DHT22;5840;46.894;15.542;2023-02-22T11:24:55;16.90;90.10
11569;DHT22;5840;46.894;15.542;2023-02-22T11:27:29;16.90;90.60
11569;DHT22;5840;46.894;15.542;2023-02-22T11:30:10;16.70;90.30
11569;DHT22;5840;46.894;15.542;2023-02-22T11:32:43;16.50;90.70
11569;DHT22;5840;46.894;15.542;2023-02-22T11:35:35;16.40;90.90
11569;DHT22;5840;46.894;15.542;2023-02-22T11:38:16;16.20;91.10
11569;DHT22;5840;46.894;15.542;2023-02-22T11:40:46;16.20;91.30
11569;DHT22;5840;46.894;15.542;2023-02-22T11:43:17;16.30;91.00
11569;DHT22;5840;46.894;15.542;2023-02-22T11:45:56;16.50;91.40
11569;DHT22;5840;46.894;15.542;2023-02-22T11:48:28;16.50;90.70
11569;DHT22;5840;46.894;15.542;2023-02-22T11:54:00;16.90;90.90
11569;DHT22;5840;46.894;15.542;2023-02-22T11:56:33;17.10;90.90
11569;DHT22;5840;46.894;15.542;2023-02-22T11:59:10;17.20;90.40
11569;DHT22;5840;46.894;15.542;2023-02-22T12:01:45;17.20;91.00
11569;DHT22;5840;46.894;15.542;2023-02-22T12:04:38;17.20;88.50
11569;DHT22;5840;46.894;15.542;2023-02-22T12:07:20;17.20;89.50
11569;DHT22;5840;46.894;15.542;2023-02-22T12:09:55;17.20;91.60
11569;DHT22;5840;46.894;15.542;2023-02-22T12:12:33;17.00;90.40
11569;DHT22;5840;46.894;15.542;2023-02-22T12:15:09;17.00;90.00
11569;DHT22;5840;46.894;15.542;2023-02-22T12:17:45;16.80;90.00
11569;DHT22;5840;46.894;15.542;2023-02-22T12:20:19;16.80;90.90
11569;DHT22;5840;46.894;15.542;2023-02-22T12:23:02;16.80;90.80
11569;DHT22;5840;46.894;15.542;2023-02-22T12:25:35;16.80;90.40
11569;DHT22;5840;46.894;15.542;2023-02-22T12:28:15;16.60;90.20
11569;DHT22;5840;46.894;15.542;2023-02-22T12:30:48;16.60;90.20
11569;DHT22;5840;46.894;15.542;2023-02-22T12:33:21;16.80;90.50
11569;DHT22;5840;46.894;15.542;2023-02-22T12:35:52;17.00;89.70
11569;DHT22;5840;46.894;15.542;2023-02-22T12:38:23;17.00;89.70
11569;DHT22;5840;46.894;15.542;2023-02-22T12:40:57;17.10;90.50
11569;DHT22;5840;46.894;15.542;2023-02-22T12:43:32;17.20;90.90
11569;DHT22;5840;46.894;15.542;2023-02-22T12:46:04;17.40;90.20
11569;DHT22;5840;46.894;15.542;2023-02-22T12:48:41;17.50;90.00
11569;DHT22;5840;46.894;15.542;2023-02-22T12:51:23;17.60;89.30
11569;DHT22;5840;46.894;15.542;2023-02-22T12:53:56;17.60;86.40
11569;DHT22;5840;46.894;15.542;2023-02-22T12:56:33;17.60;86.30
11569;DHT22;5840;46.894;15.542;2023-02-22T12:59:06;17.80;87.10
11569;DHT22;5840;46.894;15.542;2023-02-22T13:01:37;18.10;87.50
11569;DHT22;5840;46.894;15.542;2023-02-22T13:04:05;18.20;85.20
11569;DHT22;5840;46.894;15.542;2023-02-22T13:06:44;18.40;85.30
11569;DHT22;5840;46.894;15.542;2023-02-22T13:12:10;18.30;84.70
11569;DHT22;5840;46.894;15.542;2023-02-22T13:14:48;18.40;84.10
11569;DHT22;5840;46.894;15.542;2023-02-22T13:17:21;18.50;84.80
11569;DHT22;5840;46.894;15.542;2023-02-22T13:19:54;18.60;86.80
11569;DHT22;5840;46.894;15.542;2023-02-22T13:22:27;18.70;87.10
11569;DHT22;5840;46.894;15.542;2023-02-22T13:25:01;18.70;86.40
11569;DHT22;5840;46.894;15.542;2023-02-22T13:27:37;18.40;85.40
11569;DHT22;5840;46.894;15.542;2023-02-22T13:30:15;18.20;85.40
11569;DHT22;5840;46.894;15.542;2023-02-22T13:33:04;18.00;86.70
11569;DHT22;5840;46.894;15.542;2023-02-22T13:35:58;17.70;86.60
11569;DHT22;5840;46.894;15.542;2023-02-22T13:44:40;17.30;89.80
11569;DHT22;5840;46.894;15.542;2023-02-22T13:47:31;17.50;88.10
11569;DHT22;5840;46.894;15.542;2023-02-22T13:50:30;17.70;88.80
11569;DHT22;5840;46.894;15.542;2023-02-22T13:53:02;17.90;86.70
11569;DHT22;5840;46.894;15.542;2023-02-22T13:55:33;18.10;86.30
11569;DHT22;5840;46.894;15.542;2023-02-22T13:58:04;18.30;85.40
11569;DHT22;5840;46.894;15.542;2023-02-22T14:00:45;18.50;84.50
11569;DHT22;5840;46.894;15.542;2023-02-22T14:03:34;18.40;83.00
11569;DHT22;5840;46.894;15.542;2023-02-22T14:06:24;18.40;85.00
11569;DHT22;5840;46.894;15.542;2023-02-22T14:08:58;18.30;85.20
11569;DHT22;5840;46.894;15.542;2023-02-22T14:11:48;18.00;86.00
11569;DHT22;5840;46.894;15.542;2023-02-22T14:14:21;18.10;84.90
11569;DHT22;5840;46.894;15.542;2023-02-22T14:17:19;18.20;86.10
11569;DHT22;5840;46.894;15.542;2023-02-22T14:20:04;18.40;85.50
11569;DHT22;5840;46.894;15.542;2023-02-22T14:22:39;18.30;86.50
11569;DHT22;5840;46.894;15.542;2023-02-22T14:25:33;18.10;85.40
11569;DHT22;5840;46.894;15.542;2023-02-22T14:28:02;18.10;83.70
11569;DHT22;5840;46.894;15.542;2023-02-22T14:30:30;17.90;84.20
11569;DHT22;5840;46.894;15.542;2023-02-22T14:32:59;17.70;85.00
11569;DHT22;5840;46.894;15.542;2023-02-22T14:35:31;17.60;84.30
11569;DHT22;5840;46.894;15.542;2023-02-22T14:38:04;17.20;86.00
11569;DHT22;5840;46.894;15.542;2023-02-22T14:40:35;16.90;88.30
11569;DHT22;5840;46.894;15.542;2023-02-22T14:43:07;16.70;89.70
11569;DHT22;5840;46.894;15.542;2023-02-22T14:45:39;16.50;90.10
11569;DHT22;5840;46.894;15.542;2023-02-22T14:48:19;16.40;90.10
11569;DHT22;5840;46.894;15.542;2023-02-22T14:50:52;16.30;90.70
11569;DHT22;5840;46.894;15.542;2023-02-22T14:53:25;16.30;91.10
11569;DHT22;5840;46.894;15.542;2023-02-22T14:55:56;16.20;91.40
11569;DHT22;5840;46.894;15.542;2023-02-22T14:58:32;16.10;91.80
11569;DHT22;5840;46.894;15.542;2023-02-22T15:01:15;16.00;91.50
11569;DHT22;5840;46.894;15.542;2023-02-22T15:03:45;15.90;92.20
11569;DHT22;5840;46.894;15.542;2023-02-22T15:06:15;15.90;92.20
11569;DHT22;5840;46.894;15.542;2023-02-22T15:08:43;15.90;92.30
11569;DHT22;5840;46.894;15.542;2023-02-22T15:11:19;15.90;92.40
11569;DHT22;5840;46.894;15.542;2023-02-22T15:13:50;16.00;92.60
11569;DHT22;5840;46.894;15.542;2023-02-22T15:16:18;15.90;91.70
11569;DHT22;5840;46.894;15.542;2023-02-22T15:18:50;15.90;92.00
11569;DHT22;5840;46.894;15.542;2023-02-22T15:21:20;15.80;92.10
11569;DHT22;5840;46.894;15.542;2023-02-22T15:23:50;15.80;92.00
11569;DHT22;5840;46.894;15.542;2023-02-22T15:26:22;15.70;92.30
11569;DHT22;5840;46.894;15.542;2023-02-22T15:28:54;15.60;93.00
11569;DHT22;5840;46.894;15.542;2023-02-22T15:31:28;15.60;92.50
11569;DHT22;5840;46.894;15.542;2023-02-22T15:34:09;15.60;92.70
11569;DHT22;5840;46.894;15.542;2023-02-22T15:36:36;15.50;92.60
11569;DHT22;5840;46.894;15.542;2023-02-22T15:39:03;15.40;92.50
11569;DHT22;5840;46.894;15.542;2023-02-22T15:41:34;15.40;92.80
11569;DHT22;5840;46.894;15.542;2023-02-22T15:44:07;15.30;92.70
11569;DHT22;5840;46.894;15.542;2023-02-22T15:46:37;15.30;92.70
11569;DHT22;5840;46.894;15.542;2023-02-22T15:49:18;15.20;92.80
11569;DHT22;5840;46.894;15.542;2023-02-22T15:51:59;15.20;92.90
11569;DHT22;5840;46.894;15.542;2023-02-22T15:54:28;15.20;92.90
11569;DHT22;5840;46.894;15.542;2023-02-22T15:56:55;15.10;92.80
11569;DHT22;5840;46.894;15.542;2023-02-22T15:59:25;14.90;93.20
11569;DHT22;5840;46.894;15.542;2023-02-22T16:01:56;14.80;92.90
11569;DHT22;5840;46.894;15.542;2023-02-22T16:04:27;14.70;93.10
11569;DHT22;5840;46.894;15.542;2023-02-22T16:07:02;14.70;93.20
11569;DHT22;5840;46.894;15.542;2023-02-22T16:09:32;14.50;93.20
11569;DHT22;5840;46.894;15.542;2023-02-22T16:12:19;14.40;93.40
11569;DHT22;5840;46.894;15.542;2023-02-22T16:14:49;14.40;93.60
11569;DHT22;5840;46.894;15.542;2023-02-22T16:17:31;14.30;93.80
11569;DHT22;5840;46.894;15.542;2023-02-22T16:22:44;14.10;93.80
11569;DHT22;5840;46.894;15.542;2023-02-22T16:25:24;14.00;94.00
11569;DHT22;5840;46.894;15.542;2023-02-22T16:27:54;14.00;94.10